createdAt,value
2019-06-20T00:01:17.495Z,90.80
2019-06-20T00:03:49.695Z,92.50
2019-06-20T00:06:22.076Z,91.10
2019-06-20T00:08:54.603Z,92.80
2019-06-20T00:11:26.881Z,95.00
2019-06-20T00:13:59.084Z,95.30
2019-06-20T00:16:31.306Z,95.50
2019-06-20T00:19:03.971Z,96.90
2019-06-20T00:21:37.322Z,99.40
2019-06-20T00:24:11.281Z,98.50
2019-06-20T00:26:43.512Z,99.90
2019-06-20T00:29:15.808Z,99.90
2019-06-20T00:31:49.206Z,99.90
2019-06-20T00:34:21.558Z,99.90
2019-06-20T00:36:53.971Z,99.90
2019-06-20T00:39:26.708Z,99.90
2019-06-20T00:41:58.929Z,99.90
2019-06-20T00:44:31.875Z,99.90
2019-06-20T00:47:04.318Z,99.90
2019-06-20T00:49:36.505Z,99.90
2019-06-20T00:52:08.724Z,99.90
2019-06-20T00:54:40.973Z,99.90
2019-06-20T00:57:13.192Z,99.90
2019-06-20T00:59:45.845Z,99.90
2019-06-20T01:02:18.050Z,99.90
2019-06-20T01:04:50.275Z,99.90
2019-06-20T01:07:23.195Z,99.90
2019-06-20T01:09:55.592Z,99.90
2019-06-20T01:12:28.164Z,99.90
2019-06-20T01:15:00.429Z,99.90
2019-06-20T01:17:33.223Z,99.90
2019-06-20T01:20:07.060Z,99.90
2019-06-20T01:22:39.652Z,99.90
2019-06-20T01:25:12.282Z,99.90
2019-06-20T01:27:45.543Z,99.90
2019-06-20T01:30:18.152Z,99.90
2019-06-20T01:32:50.314Z,99.90
2019-06-20T01:35:22.655Z,99.90
2019-06-20T01:37:55.243Z,99.90
2019-06-20T01:40:27.768Z,99.90
2019-06-20T01:42:59.999Z,99.90
2019-06-20T01:45:32.235Z,99.90
2019-06-20T01:48:04.480Z,99.90
2019-06-20T01:50:37.899Z,99.90
2019-06-20T01:53:10.055Z,99.90
2019-06-20T01:55:42.971Z,99.90
2019-06-20T01:58:15.190Z,99.90
2019-06-20T02:00:51.321Z,99.90
2019-06-20T02:03:23.707Z,99.90
2019-06-20T02:05:55.936Z,99.90
2019-06-20T02:08:28.210Z,99.90
2019-06-20T02:11:00.697Z,99.90
2019-06-20T02:13:32.912Z,99.90
2019-06-20T02:16:05.531Z,99.90
2019-06-20T02:18:37.780Z,99.90
2019-06-20T02:21:10.757Z,99.90
2019-06-20T02:23:43.316Z,99.90
2019-06-20T02:26:15.686Z,99.90
2019-06-20T02:28:47.812Z,99.90
2019-06-20T02:31:20.194Z,99.90
2019-06-20T02:33:52.372Z,99.90
2019-06-20T02:36:24.603Z,99.90
2019-06-20T02:38:56.832Z,99.90
2019-06-20T02:41:29.490Z,99.90
2019-06-20T02:44:01.985Z,99.90
2019-06-20T02:46:34.512Z,99.90
2019-06-20T02:49:06.919Z,99.90
2019-06-20T02:51:39.430Z,99.90
2019-06-20T02:54:11.684Z,99.90
2019-06-20T02:56:43.886Z,99.90
2019-06-20T02:59:16.162Z,99.90
2019-06-20T03:01:49.043Z,99.90
2019-06-20T03:04:21.193Z,99.90
2019-06-20T03:06:53.538Z,99.90
2019-06-20T03:09:26.487Z,99.90
2019-06-20T03:11:58.676Z,99.90
2019-06-20T03:14:44.556Z,99.90
2019-06-20T03:17:05.038Z,99.90
2019-06-20T03:19:37.308Z,99.90
2019-06-20T03:22:09.653Z,99.90
2019-06-20T03:24:42.142Z,99.90
2019-06-20T03:27:14.363Z,99.90
2019-06-20T03:29:47.009Z,99.90
2019-06-20T03:32:19.231Z,99.90
2019-06-20T03:34:51.629Z,99.90
2019-06-20T03:37:23.904Z,99.90
2019-06-20T03:39:56.169Z,99.90
2019-06-20T03:42:28.363Z,99.90
2019-06-20T03:45:02.540Z,99.90
2019-06-20T03:47:34.578Z,99.90
2019-06-20T03:50:06.963Z,99.90
2019-06-20T03:52:39.159Z,99.90
2019-06-20T03:55:12.084Z,99.90
2019-06-20T03:57:46.364Z,99.90
2019-06-20T04:00:24.134Z,99.90
2019-06-20T04:02:56.387Z,99.90
2019-06-20T04:05:29.249Z,99.90
2019-06-20T04:08:01.782Z,99.90
2019-06-20T04:10:34.676Z,99.90
2019-06-20T04:13:06.905Z,99.90
2019-06-20T04:15:39.745Z,99.90
2019-06-20T04:18:11.911Z,99.90
2019-06-20T04:20:44.207Z,99.90
2019-06-20T04:23:16.818Z,99.90
2019-06-20T04:28:33.080Z,99.90
2019-06-20T04:31:05.502Z,99.90
2019-06-20T04:33:37.706Z,99.90
2019-06-20T04:36:10.487Z,99.90
2019-06-20T04:38:42.963Z,99.90
2019-06-20T04:41:15.555Z,99.90
2019-06-20T04:43:48.637Z,99.90
2019-06-20T04:46:30.028Z,99.90
2019-06-20T04:49:02.681Z,99.90
2019-06-20T04:51:35.042Z,99.90
2019-06-20T04:54:07.744Z,99.90
2019-06-20T04:56:40.379Z,99.90
2019-06-20T04:59:12.664Z,99.90
2019-06-20T05:01:45.564Z,99.90
2019-06-20T05:04:17.929Z,99.90
2019-06-20T05:06:57.740Z,99.90
2019-06-20T05:09:29.891Z,99.90
2019-06-20T05:12:02.162Z,99.90
2019-06-20T05:14:34.368Z,99.90
2019-06-20T05:17:07.427Z,99.90
2019-06-20T05:19:41.740Z,99.90
2019-06-20T05:22:14.045Z,99.90
2019-06-20T05:24:46.351Z,99.90
2019-06-20T05:27:18.846Z,99.90
2019-06-20T05:29:51.126Z,99.90
2019-06-20T05:32:23.421Z,99.90
2019-06-20T05:34:56.804Z,99.90
2019-06-20T05:37:29.182Z,99.90
2019-06-20T05:40:01.420Z,99.90
2019-06-20T05:42:33.856Z,99.90
2019-06-20T05:45:07.371Z,99.90
2019-06-20T05:47:39.585Z,99.90
2019-06-20T05:50:13.335Z,99.90
2019-06-20T05:52:45.670Z,99.90
2019-06-20T05:55:18.464Z,99.90
2019-06-20T05:57:50.653Z,99.90
2019-06-20T06:00:26.031Z,99.90
2019-06-20T06:02:58.352Z,99.90
2019-06-20T06:05:30.831Z,99.90
2019-06-20T06:08:03.962Z,99.90
2019-06-20T06:10:36.267Z,99.90
2019-06-20T06:13:08.502Z,99.90
2019-06-20T06:15:41.126Z,99.90
2019-06-20T06:18:14.210Z,99.90
2019-06-20T06:20:46.574Z,99.90
2019-06-20T06:23:18.921Z,99.90
2019-06-20T06:25:52.155Z,99.90
2019-06-20T06:28:24.578Z,99.90
2019-06-20T06:30:56.964Z,99.90
2019-06-20T06:33:29.183Z,99.90
2019-06-20T06:36:01.586Z,99.90
2019-06-20T06:38:33.993Z,99.90
2019-06-20T06:41:06.410Z,99.90
2019-06-20T06:43:42.012Z,99.90
2019-06-20T06:46:13.739Z,99.90
2019-06-20T06:48:46.816Z,99.90
2019-06-20T06:51:19.465Z,99.90
2019-06-20T06:53:52.388Z,99.90
2019-06-20T06:56:25.956Z,99.90
2019-06-20T06:58:58.955Z,99.90
2019-06-20T07:01:31.999Z,99.90
2019-06-20T07:04:04.425Z,99.90
2019-06-20T07:06:36.805Z,99.90
2019-06-20T07:09:10.008Z,99.90
2019-06-20T07:11:42.387Z,99.90
2019-06-20T07:14:14.915Z,99.90
2019-06-20T07:16:59.797Z,99.90
2019-06-20T07:19:21.899Z,99.90
2019-06-20T07:21:54.263Z,99.90
2019-06-20T07:24:27.550Z,99.90
2019-06-20T07:27:04.807Z,99.90
2019-06-20T07:29:38.987Z,99.90
2019-06-20T07:32:13.122Z,99.90
2019-06-20T07:34:45.353Z,99.90
2019-06-20T07:37:18.386Z,99.90
2019-06-20T07:39:50.629Z,99.90
2019-06-20T07:42:23.038Z,99.90
2019-06-20T07:44:55.198Z,99.90
2019-06-20T07:47:27.868Z,99.90
2019-06-20T07:50:00.267Z,99.90
2019-06-20T07:52:32.521Z,99.90
2019-06-20T07:55:05.529Z,99.90
2019-06-20T07:57:37.940Z,99.90
2019-06-20T08:00:12.040Z,99.90
2019-06-20T08:02:44.366Z,99.90
2019-06-20T08:05:16.985Z,99.90
2019-06-20T08:07:49.252Z,99.90
2019-06-20T08:10:22.253Z,99.90
2019-06-20T08:12:54.801Z,99.90
2019-06-20T08:15:27.226Z,99.90
2019-06-20T08:17:59.721Z,99.90
2019-06-20T08:20:32.153Z,99.90
2019-06-20T08:23:04.556Z,99.90
2019-06-20T08:25:36.958Z,99.90
2019-06-20T08:28:09.332Z,99.90
2019-06-20T08:30:42.342Z,99.90
2019-06-20T08:33:17.903Z,99.90
2019-06-20T08:35:51.412Z,99.90
2019-06-20T08:38:23.757Z,99.90
2019-06-20T08:40:57.013Z,99.90
2019-06-20T08:43:31.110Z,99.90
2019-06-20T08:46:10.054Z,99.90
2019-06-20T08:48:39.960Z,99.90
2019-06-20T08:51:14.573Z,99.90
2019-06-20T08:53:46.394Z,99.90
2019-06-20T08:56:19.195Z,99.90
2019-06-20T08:58:51.438Z,99.90
2019-06-20T09:01:23.989Z,99.90
2019-06-20T09:03:57.022Z,99.90
2019-06-20T09:06:30.322Z,99.90
2019-06-20T09:09:02.779Z,99.90
2019-06-20T09:11:35.593Z,99.90
2019-06-20T09:14:07.905Z,99.90
2019-06-20T09:16:40.970Z,99.90
2019-06-20T09:19:14.207Z,99.90
2019-06-20T09:21:46.702Z,99.90
2019-06-20T09:24:18.904Z,99.90
2019-06-20T09:26:52.411Z,99.90
2019-06-20T09:29:25.290Z,99.90
2019-06-20T09:31:59.841Z,99.90
2019-06-20T09:34:32.427Z,99.90
2019-06-20T09:37:05.993Z,99.90
2019-06-20T09:39:38.742Z,99.90
2019-06-20T09:42:11.266Z,99.90
2019-06-20T09:44:43.783Z,99.90
2019-06-20T09:47:16.094Z,99.90
2019-06-20T09:49:50.586Z,99.90
2019-06-20T09:52:22.858Z,99.90
2019-06-20T09:54:56.136Z,99.90
2019-06-20T09:57:28.883Z,99.90
2019-06-20T10:00:09.581Z,99.90
2019-06-20T10:02:35.251Z,99.90
2019-06-20T10:05:09.082Z,99.90
2019-06-20T10:07:41.501Z,99.90
2019-06-20T10:10:15.017Z,99.90
2019-06-20T10:12:47.971Z,99.90
2019-06-20T10:15:26.448Z,99.90
2019-06-20T10:17:58.934Z,99.90
2019-06-20T10:20:31.877Z,99.90
2019-06-20T10:23:05.146Z,99.90
2019-06-20T10:25:37.952Z,99.90
2019-06-20T10:28:10.846Z,99.90
2019-06-20T10:30:44.685Z,99.90
2019-06-20T10:33:17.481Z,99.90
2019-06-20T10:35:50.382Z,99.90
2019-06-20T10:38:22.798Z,99.90
2019-06-20T10:40:59.459Z,99.90
2019-06-20T10:43:29.223Z,99.90
2019-06-20T10:46:01.689Z,99.90
2019-06-20T10:48:34.178Z,99.90
2019-06-20T10:51:24.175Z,99.90
2019-06-20T10:53:57.210Z,99.90
2019-06-20T10:56:29.547Z,98.70
2019-06-20T10:59:01.786Z,99.90
2019-06-20T11:01:34.260Z,96.80
2019-06-20T11:04:07.174Z,99.90
2019-06-20T11:06:41.339Z,95.60
2019-06-20T11:09:14.359Z,94.80
2019-06-20T11:11:47.166Z,95.50
2019-06-20T11:14:19.621Z,95.30
2019-06-20T11:16:51.885Z,95.50
2019-06-20T11:19:24.078Z,97.80
2019-06-20T11:21:56.609Z,99.90
2019-06-20T11:24:28.971Z,97.10
2019-06-20T11:27:01.237Z,98.70
2019-06-20T11:29:34.082Z,96.20
2019-06-20T11:32:06.337Z,92.80
2019-06-20T11:34:39.400Z,95.60
2019-06-20T11:37:12.044Z,93.10
2019-06-20T11:39:44.384Z,91.80
2019-06-20T11:42:16.642Z,91.70
2019-06-20T11:44:48.959Z,90.00
2019-06-20T11:47:21.534Z,85.90
2019-06-20T11:49:54.503Z,87.70
2019-06-20T11:52:26.747Z,91.20
2019-06-20T11:54:59.137Z,90.30
2019-06-20T11:57:31.901Z,85.00
2019-06-20T12:00:05.080Z,91.00
2019-06-20T12:02:37.383Z,82.50
2019-06-20T12:05:10.029Z,87.40
2019-06-20T12:07:43.847Z,82.20
2019-06-20T12:10:17.568Z,84.00
2019-06-20T12:12:49.881Z,81.40
2019-06-20T12:15:22.798Z,83.80
2019-06-20T12:17:55.119Z,83.80
2019-06-20T12:20:27.721Z,83.00
2019-06-20T12:22:59.846Z,89.20
2019-06-20T12:25:32.084Z,86.10
2019-06-20T12:28:04.406Z,85.70
2019-06-20T12:30:36.578Z,82.20
2019-06-20T12:33:08.818Z,81.90
2019-06-20T12:35:42.620Z,79.60
2019-06-20T12:38:15.345Z,78.70
2019-06-20T12:40:48.434Z,77.50
2019-06-20T12:43:20.678Z,77.00
2019-06-20T12:45:52.871Z,80.50
2019-06-20T12:48:25.489Z,75.80
2019-06-20T12:50:57.708Z,70.40
2019-06-20T12:53:30.317Z,75.20
2019-06-20T12:56:02.598Z,73.00
2019-06-20T12:58:35.467Z,71.00
2019-06-20T13:01:08.782Z,76.00
2019-06-20T13:03:41.161Z,71.70
2019-06-20T13:06:13.317Z,73.30
2019-06-20T13:08:45.582Z,73.90
2019-06-20T13:11:18.131Z,71.50
2019-06-20T13:13:51.852Z,70.10
2019-06-20T13:16:24.474Z,71.70
2019-06-20T13:18:57.053Z,71.80
2019-06-20T13:21:29.250Z,72.80
2019-06-20T13:24:01.451Z,70.80
2019-06-20T13:26:33.736Z,71.50
2019-06-20T13:29:07.112Z,70.60
2019-06-20T13:31:56.147Z,72.40
2019-06-20T13:34:13.256Z,70.40
2019-06-20T13:36:46.990Z,69.60
2019-06-20T13:39:19.708Z,71.40
2019-06-20T13:41:51.993Z,74.40
2019-06-20T13:44:24.734Z,72.20
2019-06-20T13:46:57.039Z,74.70
2019-06-20T13:49:29.365Z,73.60
2019-06-20T13:52:01.549Z,78.90
2019-06-20T13:54:33.841Z,77.30
2019-06-20T13:57:06.274Z,75.30
2019-06-20T13:59:40.260Z,79.10
2019-06-20T14:02:12.824Z,78.20
2019-06-20T14:04:46.466Z,78.40
2019-06-20T14:07:19.125Z,78.40
2019-06-20T14:09:51.467Z,80.70
2019-06-20T14:12:24.076Z,79.60
2019-06-20T14:14:56.562Z,77.60
2019-06-20T14:17:29.022Z,83.10
2019-06-20T14:20:01.522Z,82.50
2019-06-20T14:22:34.178Z,81.50
2019-06-20T14:25:08.193Z,86.10
2019-06-20T14:27:42.334Z,89.70
2019-06-20T14:30:16.344Z,89.10
2019-06-20T14:32:49.368Z,95.10
2019-06-20T14:35:22.267Z,99.90
2019-06-20T14:37:55.577Z,99.90
2019-06-20T14:40:28.077Z,99.90
2019-06-20T14:43:00.733Z,99.90
2019-06-20T14:45:33.433Z,99.90
2019-06-20T14:48:05.939Z,99.90
2019-06-20T14:50:38.150Z,99.90
2019-06-20T14:53:10.318Z,99.90
2019-06-20T14:55:44.287Z,99.90
2019-06-20T14:58:17.033Z,99.90
2019-06-20T15:00:49.897Z,99.90
2019-06-20T15:03:22.478Z,99.90
2019-06-20T15:05:56.423Z,99.90
2019-06-20T15:08:28.761Z,99.90
2019-06-20T15:11:01.455Z,99.90
2019-06-20T15:13:34.328Z,99.90
2019-06-20T15:16:08.363Z,99.90
2019-06-20T15:18:45.132Z,99.90
2019-06-20T15:21:15.694Z,99.90
2019-06-20T15:23:49.516Z,99.90
2019-06-20T15:26:22.828Z,99.90
2019-06-20T15:28:55.573Z,99.90
2019-06-20T15:31:29.145Z,99.90
2019-06-20T15:34:01.422Z,99.90
2019-06-20T15:36:34.392Z,99.90
2019-06-20T15:39:08.081Z,99.90
2019-06-20T15:41:40.570Z,99.90
2019-06-20T15:44:12.914Z,99.90
2019-06-20T15:46:45.298Z,99.90
2019-06-20T15:49:17.619Z,95.40
2019-06-20T15:51:49.919Z,94.80
2019-06-20T15:54:24.493Z,94.90
2019-06-20T15:56:56.255Z,95.50
2019-06-20T15:59:29.724Z,94.10
2019-06-20T16:02:02.266Z,95.90
2019-06-20T16:04:34.536Z,96.20
2019-06-20T16:07:06.677Z,97.20
2019-06-20T16:09:39.227Z,98.50
2019-06-20T16:12:11.448Z,95.90
2019-06-20T16:14:43.992Z,99.90
2019-06-20T16:17:19.451Z,98.70
2019-06-20T16:19:51.687Z,95.60
2019-06-20T16:22:23.943Z,95.30
2019-06-20T16:24:56.201Z,93.80
2019-06-20T16:27:28.393Z,96.50
2019-06-20T16:30:00.586Z,95.50
2019-06-20T16:32:32.765Z,98.20
2019-06-20T16:35:05.694Z,95.80
2019-06-20T16:37:38.118Z,97.00
2019-06-20T16:40:11.699Z,99.10
2019-06-20T16:42:44.063Z,97.90
2019-06-20T16:45:16.795Z,99.70
2019-06-20T16:47:49.155Z,98.50
2019-06-20T16:50:22.135Z,95.30
2019-06-20T16:52:54.675Z,95.10
2019-06-20T16:55:26.969Z,95.00
2019-06-20T16:57:59.330Z,95.10
2019-06-20T17:00:32.639Z,94.80
2019-06-20T17:03:06.109Z,94.00
2019-06-20T17:05:38.917Z,95.30
2019-06-20T17:08:11.515Z,97.20
2019-06-20T17:10:43.907Z,97.60
2019-06-20T17:13:16.219Z,99.40
2019-06-20T17:15:48.581Z,97.00
2019-06-20T17:18:21.278Z,95.80
2019-06-20T17:20:53.536Z,95.50
2019-06-20T17:23:25.872Z,95.60
2019-06-20T17:26:01.561Z,95.00
2019-06-20T17:28:33.924Z,95.50
2019-06-20T17:31:06.313Z,97.60
2019-06-20T17:33:38.255Z,99.90
2019-06-20T17:36:18.304Z,99.80
2019-06-20T17:38:43.719Z,99.10
2019-06-20T17:41:15.801Z,99.60
2019-06-20T17:43:47.637Z,98.90
2019-06-20T17:46:19.468Z,99.90
2019-06-20T17:48:52.050Z,97.80
2019-06-20T17:51:23.927Z,99.90
2019-06-20T17:53:55.751Z,99.90
2019-06-20T17:56:28.752Z,99.90
2019-06-20T17:59:00.858Z,99.90
2019-06-20T18:01:35.886Z,99.90
2019-06-20T18:04:13.768Z,99.90
2019-06-20T18:06:39.842Z,99.90
2019-06-20T18:09:11.988Z,99.90
2019-06-20T18:11:43.846Z,99.90
2019-06-20T18:14:15.685Z,99.90
2019-06-20T18:16:47.803Z,99.90
2019-06-20T18:19:19.738Z,99.90
2019-06-20T18:21:51.831Z,99.90
2019-06-20T18:24:24.838Z,99.90
2019-06-20T18:26:56.734Z,99.90
2019-06-20T18:29:28.814Z,99.90
2019-06-20T18:32:00.708Z,99.90
2019-06-20T18:34:32.557Z,99.90
2019-06-20T18:37:04.495Z,99.90
2019-06-20T18:39:36.478Z,99.90
2019-06-20T18:42:08.367Z,99.90
2019-06-20T18:44:40.797Z,99.90
2019-06-20T18:47:12.737Z,99.90
2019-06-20T18:49:44.709Z,99.90
2019-06-20T18:52:16.575Z,99.90
2019-06-20T18:54:48.733Z,99.90
2019-06-20T18:57:20.872Z,99.90
2019-06-20T18:59:52.811Z,99.90
2019-06-20T19:02:28.971Z,99.90
2019-06-20T19:05:00.969Z,99.90
2019-06-20T19:07:33.102Z,99.90
2019-06-20T19:10:05.794Z,99.90
2019-06-20T19:12:37.777Z,99.90
2019-06-20T19:15:11.305Z,99.90
2019-06-20T19:17:43.357Z,99.90
2019-06-20T19:20:17.581Z,99.90
2019-06-20T19:22:49.711Z,99.90
2019-06-20T19:25:22.106Z,99.90
2019-06-20T19:27:54.123Z,99.90
2019-06-20T19:30:45.271Z,99.90
2019-06-20T19:33:17.411Z,99.90
2019-06-20T19:36:00.669Z,99.90
2019-06-20T19:38:32.648Z,99.90
2019-06-20T19:41:04.606Z,99.90
2019-06-20T19:43:38.394Z,99.90
2019-06-20T19:46:10.639Z,99.90
2019-06-20T19:48:50.132Z,99.90
2019-06-20T19:51:22.577Z,99.90
2019-06-20T19:53:54.707Z,99.90
2019-06-20T19:56:26.881Z,99.90
2019-06-20T19:59:00.227Z,99.90
2019-06-20T20:01:32.414Z,99.90
2019-06-20T20:04:06.962Z,99.90
2019-06-20T20:06:39.230Z,99.90
2019-06-20T20:09:11.880Z,99.90
2019-06-20T20:11:43.870Z,99.90
2019-06-20T20:14:15.821Z,99.90
2019-06-20T20:16:47.977Z,99.90
2019-06-20T20:19:20.102Z,99.90
2019-06-20T20:21:52.343Z,99.90
2019-06-20T20:24:27.044Z,99.90
2019-06-20T20:26:59.174Z,99.90
2019-06-20T20:29:32.489Z,99.90
2019-06-20T20:32:04.734Z,99.90
2019-06-20T20:34:37.227Z,99.90
2019-06-20T20:37:09.390Z,99.90
2019-06-20T20:39:41.546Z,99.90
2019-06-20T20:42:17.009Z,99.90
2019-06-20T20:44:47.782Z,99.90
2019-06-20T20:47:20.021Z,99.90
2019-06-20T20:49:52.542Z,99.90
2019-06-20T20:52:24.761Z,99.90
2019-06-20T20:54:56.989Z,99.90
2019-06-20T20:57:29.262Z,99.90
2019-06-20T21:00:01.737Z,99.90
2019-06-20T21:02:35.704Z,99.90
2019-06-20T21:05:08.082Z,99.90
2019-06-20T21:07:40.355Z,99.90
2019-06-20T21:10:14.404Z,99.90
2019-06-20T21:12:52.331Z,99.90
2019-06-20T21:15:21.799Z,99.90
2019-06-20T21:17:55.791Z,99.90
2019-06-20T21:20:33.779Z,99.90
2019-06-20T21:23:06.112Z,99.90
2019-06-20T21:25:38.234Z,99.90
2019-06-20T21:28:11.365Z,99.90
2019-06-20T21:30:43.585Z,99.90
2019-06-20T21:33:15.936Z,99.90
2019-06-20T21:36:07.194Z,99.90
2019-06-20T21:38:28.166Z,99.90
2019-06-20T21:41:01.905Z,99.90
2019-06-20T21:43:34.067Z,99.90
2019-06-20T21:46:07.600Z,99.90
2019-06-20T21:48:39.881Z,99.90
2019-06-20T21:51:12.017Z,99.90
2019-06-20T21:53:47.230Z,99.90
2019-06-20T21:56:19.250Z,99.90
2019-06-20T21:58:52.763Z,99.90
2019-06-20T22:01:26.252Z,99.90
2019-06-20T22:03:59.658Z,99.90
2019-06-20T22:06:31.952Z,99.90
2019-06-20T22:09:08.577Z,99.90
2019-06-20T22:11:42.400Z,99.90
2019-06-20T22:14:15.588Z,99.90
2019-06-20T22:16:52.282Z,99.90
2019-06-20T22:19:25.410Z,99.90
2019-06-20T22:21:57.560Z,99.90
2019-06-20T22:24:29.804Z,99.90
2019-06-20T22:27:03.449Z,99.90
2019-06-20T22:29:35.730Z,99.90
2019-06-20T22:32:07.976Z,99.90
2019-06-20T22:34:40.171Z,99.90
2019-06-20T22:37:13.307Z,99.90
2019-06-20T22:39:48.270Z,99.90
2019-06-20T22:42:20.261Z,99.90
2019-06-20T22:44:52.263Z,99.90
2019-06-20T22:47:24.239Z,99.90
2019-06-20T22:49:56.170Z,99.90
2019-06-20T22:52:28.474Z,99.90
2019-06-20T22:55:02.515Z,99.90
2019-06-20T22:57:34.551Z,99.90
2019-06-20T23:00:07.960Z,99.90
2019-06-20T23:02:40.058Z,99.90
2019-06-20T23:05:12.378Z,99.90
2019-06-20T23:07:44.729Z,99.90
2019-06-20T23:10:16.974Z,99.90
2019-06-20T23:12:49.065Z,99.90
2019-06-20T23:15:21.129Z,99.90
2019-06-20T23:17:53.100Z,99.90
2019-06-20T23:20:25.296Z,99.90
2019-06-20T23:22:57.265Z,99.90
2019-06-20T23:25:29.251Z,99.90
2019-06-20T23:28:01.374Z,99.90
2019-06-20T23:30:33.488Z,99.90
2019-06-20T23:33:05.733Z,99.90
2019-06-20T23:35:37.667Z,99.90
2019-06-20T23:38:09.688Z,99.90
2019-06-20T23:40:41.881Z,99.90
2019-06-20T23:43:13.942Z,99.90
2019-06-20T23:45:45.940Z,99.90
2019-06-20T23:48:18.226Z,99.90
2019-06-20T23:50:50.363Z,99.90
2019-06-20T23:53:25.297Z,99.90
2019-06-20T23:55:59.757Z,99.90
2019-06-20T23:58:32.020Z,99.90
